Weather observations for the past three days for
Northwest Arkansas Regional Airport
Imperial (Metric)
Date Time (cdt) Wind (mph) Vis. (mi.) Weather Sky Cond. Temperature (ºF) Relative Humidity Wind Chill (°F) Heat Index (°F) Pressure Precipitation (in)
Air Dwpt 6 hour altimeter (in) sea level (mb) 1 hr 3 hr 6 hr
Max. Min.
03 22:53 S 5 10.00 Fair CLR 82.9 64.9 55% 85 29.98 1013.2
03 21:53 S 6 10.00 Fair CLR 84.9 64.9 51% 87 29.97 1013.0
03 20:53 S 6 10.00 Fair CLR 87.1 64 46% 88 29.95 1012.2
03 19:53 S 7 10.00 Partly Cloudy SCT070 91 64 41% 93 29.93 1011.6
03 18:53 S 9 10.00 Partly Cloudy SCT070 95 64.9 99 93.9 37% 98 29.92 1011.3
03 17:53 S 12 10.00 Partly Cloudy SCT075 97 64 34% 99 29.92 1011.2
03 16:53 S 10 G 21 10.00 Fair CLR 98.1 64.9 34% 101 29.92 1011.2
03 15:53 S 18 G 26 10.00 A Few Clouds FEW070 98.1 64.9 34% 101 29.93 1011.5
03 14:53 S 17 G 23 10.00 Fair CLR 97 64 34% 99 29.95 1012.3
03 13:53 S 15 G 22 10.00 Fair CLR 97 66 36% 101 29.97 1012.7
03 12:53 S 17 G 35 10.00 Fair CLR 93.9 66 93.9 73.9 40% 97 29.99 1013.4
03 11:53 S 12 G 20 10.00 Fair CLR 91 66.9 45% 94 30.02 1014.5
03 10:53 S 14 10.00 Fair CLR 89.1 66.9 48% 92 30.03 1014.9
03 09:53 S 15 10.00 Fair CLR 86 66.9 53% 89 30.03 1015.1
03 08:53 S 13 10.00 Fair CLR 81 68 65% 84 30.05 1015.7
03 07:53 S 7 10.00 Fair CLR 77 69.1 77% 79 30.05 1015.6
03 05:53 S 5 10.00 Fair CLR 75.9 68 77% 77 30.02 1014.8
03 04:53 SE 5 10.00 Fair CLR 75.9 66.9 74% 77 30.02 1014.6
03 03:53 S 6 10.00 Fair CLR 77 66.9 71% 79 30.02 1014.4
03 02:53 S 6 10.00 Fair CLR 78.1 66.9 69% 80 30.01 1014.2
03 01:53 S 3 10.00 Fair CLR 79 66 65% 81 30.01 1014.1
02 23:53 S 6 10.00 Fair CLR 82.9 66 57% 85 30 1013.9
02 22:53 S 9 10.00 Fair CLR 84.9 66 53% 87 30 1013.8
02 21:53 S 8 10.00 Fair CLR 86 66 51% 88 30 1013.9
02 20:53 S 8 10.00 Fair CLR 88 64.9 46% 90 29.98 1013.2
02 19:53 S 9 10.00 Fair CLR 91 63 39% 92 29.95 1012.5
02 18:53 SE 13 10.00 A Few Clouds FEW100 97 63 100 95 33% 99 29.95 1012.1
02 17:53 S 12 10.00 A Few Clouds FEW100 97 61 30% 98 29.96 1012.5
02 16:53 SE 9 10.00 Overcast OVC080 100 62.1 29% 102 29.97 1012.7
02 15:53 S 9 10.00 A Few Clouds FEW080 100 62.1 29% 102 29.98 1013.1
02 14:53 SE 7 10.00 Mostly Cloudy SCT080 BKN100 97 63 33% 99 30 1014.0
02 13:53 S 9 G 16 10.00 A Few Clouds FEW070 97 64 34% 99 30.03 1014.8
02 12:53 S 10 G 17 10.00 Fair CLR 95 64.9 96.1 77 37% 98 30.06 1015.9
02 11:53 S 9 10.00 Fair CLR 93 66.9 42% 97 30.09 1016.8
02 10:53 SW 9 G 17 10.00 Fair CLR 90 66.9 47% 93 30.1 1017.1
02 09:53 Calm 10.00 Fair CLR 87.1 66.9 51% 90 30.1 1017.3
02 08:53 S 8 10.00 Overcast OVC110 84 66.9 57% 87 30.1 1017.4
02 07:53 S 6 10.00 Partly Cloudy SCT110 79 68 69% 81 30.09 1016.9
02 06:53 S 6 10.00 Mostly Cloudy BKN100 78.1 66.9 82 75.9 69% 80 30.08 1016.6
02 05:53 SW 3 10.00 Mostly Cloudy BKN100 75.9 66.9 74% 77 30.06 1016.0
02 04:53 S 6 10.00 Fair CLR 78.1 66.9 69% 80 30.06 1015.7
02 03:53 S 8 10.00 Fair CLR 79 66.9 67% 81 30.05 1015.7
02 02:53 Calm 10.00 Fair CLR 80.1 66 62% 82 30.05 1015.6
02 01:53 S 6 10.00 Fair CLR 81 66 61% 83 30.06 1015.8
02 00:53 S 7 10.00 Fair CLR 82 64.9 96.1 81 56% 84 30.05 1015.6
01 23:53 S 5 10.00 Fair CLR 82.9 64.9 55% 85 30.05 1015.5
01 22:53 S 10 10.00 Fair CLR 84.9 64.9 51% 87 30.04 1015.1
01 21:53 S 8 10.00 Fair CLR 84 63 49% 85 30.03 1014.8
01 20:53 S 5 10.00 Fair CLR 87.1 61 42% 87 30 1013.9
01 19:53 S 5 10.00 Fair CLR 91.9 60.1 34% 92 29.99 1013.6
01 18:53 S 6 10.00 Fair CLR 96.1 59 100 93.9 29% 96 29.99 1013.7
01 17:53 S 8 10.00 Mostly Cloudy SCT100 BKN110 99 59 27% 99 30 1013.9
01 16:53 Vrbl 6 10.00 Fair CLR 99 60.1 28% 99 30 1013.8
01 15:53 SE 10 10.00 Partly Cloudy SCT100 97 61 30% 98 30.02 1014.5
01 14:53 E 5 10.00 A Few Clouds FEW100 98.1 63 32% 100 30.04 1015.2
01 13:53 Vrbl 7 G 17 10.00 A Few Clouds FEW070 97 63 33% 99 30.06 1015.9
01 12:53 W 6 10.00 Partly Cloudy SCT070 SCT090 95 63 97 75 35% 96 30.09 1016.8
01 11:53 SW 7 10.00 Fair CLR 95 64.9 37% 98 30.11 1017.6
01 10:53 SW 9 10.00 Fair CLR 91.9 66.9 44% 95 30.12 1018.0
01 09:53 S 14 G 21 10.00 Fair CLR 88 66.9 50% 91 30.12 1018.1
01 08:53 S 8 10.00 Fair CLR 84 66.9 57% 87 30.12 1018.2
01 07:53 S 6 10.00 Fair CLR 79 66 65% 81 30.11 1017.9
01 06:53 S 5 10.00 Fair CLR 75.9 64.9 80.1 75.9 69% 78 30.09 1017.1
01 05:53 SW 5 10.00 Fair CLR 77 64.9 66% 79 30.08 1016.6
01 04:53 Calm 10.00 Mostly Cloudy BKN095 78.1 64 62% 80 30.07 1016.4
01 03:53 S 5 10.00 Fair CLR 79 64 60% 81 30.07 1016.2
01 02:53 S 6 10.00 Overcast OVC090 80.1 63 56% 81 30.06 1016.0
01 01:53 S 6 10.00 Mostly Cloudy BKN090 80.1 62.1 54% 81 30.07 1016.1
01 00:53 S 7 10.00 Fair CLR 80.1 61 96.1 80.1 52% 81 30.07 1016.1
31 23:53 S 5 10.00 Fair CLR 81 60.1 49% 82 30.05 1015.5
Date Time (cdt) Wind (mph) Vis. (mi.) Weather Sky Cond. Air Dwpt Max. Min. Relative Humidity Wind Chill (°F) Heat Index (°F) altimeter (in) sea level (mb) 1 hr 3 hr 6 hr
6 hour
Temperature (ºF) Pressure Precipitation (in)